Alta, California
Current Conditions -  °F | °C
As of 8:52 PM on Monday 26 Jan 2015 (Local Time) from KBLU Reporting Station
Clear Clear  
Wind Chill: 50°   Ceiling: Unl
Heat Index: 50°   Visibility: 10mi
Dew Point: 24°   Wind: 5mph
Humidity: 36%   Direction: 120°ESE
Pressure: 30.12"   Gusts: NA
Location:  39.21°N, 120.81°W
Report Text: KBLU 270452Z AUTO 12004KT 10SM CLR 10/M04 A3012 RMK AO2 SLP152 T01001044
Loading
Personal Weather Stations






























Interactive Weather Map New forecast layout! Learn more

10-Day Weather Forecast

Advertisements
Track Severe Weather on mobile